ADDS TAF Data INFO
IDs: Format: Raw Decoded Include METARs

Data at: 1816 UTC 24 Jun 2018

KALS 241752Z AUTO 20012G18KT 10SM CLR 26/M04 A3006 RMK AO2 SLP070 T02611044 10261 20044 58008

KALS 241720Z 2418/2518 VRB05KT P6SM SKC
  FM241900 28015G25KT P6SM SCT100
  FM250200 07010KT P6SM FEW100
  FM250500 VRB05KT P6SM SKC